Flight Track Log - Related Links

Times and Time Zones

All times are in EDT time to prevent confusion due to time zone crossing. See the N31075 flight status page for this flight to view local times or setup timezone preferences in your user account.


Time Position Orientation Groundspeed Altitude Reporting Facility
EDT Latitude Longitude Course Direction KTS MPH feet Rate Location/Type
Tue 02:49:00 PM 43.9384 -69.3682 245° Southwest  Level FlightAware Approximate
Tue 02:50:00 PM 43.9220 -69.4174 245° Southwest  Level FlightAware Approximate
Tue 02:51:00 PM 43.9016 -69.4635 235° Southwest  Level FlightAware Approximate
Tue 02:52:00 PM 43.8818 -69.5101 240° Southwest  Level FlightAware Approximate
Tue 02:53:00 PM 43.8622 -69.5570 240° Southwest  Level FlightAware Approximate
Tue 02:54:00 PM 43.8425 -69.6037 240° Southwest  Level FlightAware Approximate
Tue 02:55:00 PM 43.8229 -69.6505 240° Southwest  Level FlightAware Approximate
Tue 02:56:00 PM 43.8032 -69.6972 240° Southwest  Level FlightAware Approximate
Tue 02:57:00 PM 43.7835 -69.7439 240° Southwest  Level FlightAware Approximate
Tue 02:58:00 PM 43.7638 -69.7906 240° Southwest  Level FlightAware Approximate
Tue 02:59:00 PM 43.7441 -69.8372 240° Southwest  Level FlightAware Approximate
Tue 03:00:00 PM 43.7243 -69.8838 240° Southwest  Level FlightAware Approximate
Tue 03:01:00 PM 43.7046 -69.9304 240° Southwest  Level FlightAware Approximate
Tue 03:02:00 PM 43.6848 -69.9769 240° Southwest  Level FlightAware Approximate
Tue 03:03:00 PM 43.6650 -70.0234 240° Southwest  Level FlightAware Approximate
Tue 03:04:00 PM 43.6451 -70.0699 239° Southwest  Level FlightAware Approximate
Tue 03:05:00 PM 43.6253 -70.1163 239° Southwest  Level FlightAware Approximate
Tue 03:06:00 PM 43.6054 -70.1627 239° Southwest  Level FlightAware Approximate
Tue 03:07:00 PM 43.5855 -70.2091 239° Southwest  Level FlightAware Approximate
Tue 03:08:00 PM 43.5656 -70.2554 239° Southwest  Level FlightAware Approximate
Tue 03:09:00 PM 43.5457 -70.3018 239° Southwest  Level FlightAware Approximate
Tue 03:10:00 PM 43.5258 -70.3481 239° Southwest  Level FlightAware Approximate
Tue 03:11:00 PM 43.5058 -70.3943 239° Southwest  Level FlightAware Approximate
Tue 03:11:30 PM 43.4167 -70.4333 207° Southwest 158 182 8,100  Level KA90
Tue 03:12:00 PM 43.4858 -70.4405 239° Southwest  Level FlightAware Approximate
Tue 03:12:13 PM 43.3833 -70.4500 200° South 158 182 8,100  Level KA90
Tue 03:13:00 PM 43.4658 -70.4867 239° Southwest  Level FlightAware Approximate
Tue 03:13:15 PM 43.3500 -70.5000 227° Southwest 158 182 8,100  Level KA90
Tue 03:14:00 PM 43.4458 -70.5329 239° Southwest  Level FlightAware Approximate
Tue 03:14:12 PM 43.3167 -70.5333 216° Southwest 159 183 8,100  Level KA90
Tue 03:15:00 PM 43.4258 -70.5790 239° Southwest  Level FlightAware Approximate
Tue 03:15:27 PM 43.2833 -70.5667 216° Southwest 159 183 8,100  Level KA90
Tue 03:16:00 PM 43.3978 -70.6135 207° Southwest  Level FlightAware Approximate
Tue 03:16:25 PM 43.2333 -70.6000 206° Southwest 160 184 8,100  Level KA90
Tue 03:17:00 PM 43.3631 -70.6383 207° Southwest  Level FlightAware Approximate
Tue 03:17:21 PM 43.2167 -70.6333 236° Southwest 163 188 8,100  Level KA90
Tue 03:18:27 PM 43.1667 -70.6833 216° Southwest 161 185 8,100  Level KA90
Tue 03:19:27 PM 43.1333 -70.7167 216° Southwest 162 186 8,100  Level KA90
Tue 03:20:22 PM 43.1000 -70.7500 216° Southwest 163 188 8,100 -214 Level KA90
Tue 03:21:19 PM 43.0667 -70.7833 216° Southwest 169 194 7,700 -384 Descending KA90
Tue 03:22:27 PM 43.0167 -70.8333 216° Southwest 173 199 7,300 -488 Descending KA90
Tue 03:23:22 PM 42.9833 -70.8667 216° Southwest 174 200 6,700 -789 Descending KA90
Tue 03:24:21 PM 42.9500 -70.9000 216° Southwest 178 205 5,800 -923 Descending KA90
Tue 03:25:19 PM 42.9000 -70.9333 206° Southwest 179 206 4,900 -958 Descending KA90
Tue 03:26:20 PM 42.8667 -70.9833 228° Southwest 177 204 3,900 -927 Descending KA90
Tue 03:27:09 PM 42.8333 -71.0000 200° South 176 203 3,200 -397 Descending KA90
Tue 03:28:21 PM 42.7833 -71.0333 206° Southwest 151 174 3,100  Descending KA90
Tue 03:29:21 PM 42.7500 -71.0667 216° Southwest 143 165 3,200  Climbing KA90
Tue 03:30:10 PM 42.7167 -71.0833 200° South 140 161 3,100 -50 Descending KA90
Tue 03:31:21 PM 42.6833 -71.1167 216° Southwest 138 159 3,100  Level KA90
Tue 03:32:13 PM 42.6500 -71.1500 216° Southwest 137 158 3,100 -105 Level KA90
Tue 03:33:15 PM 42.6167 -71.1667 200° South 137 158 2,900 -397 Descending KA90
Tue 03:34:14 PM 42.5833 -71.2000 216° Southwest 154 177 2,300 -476 Descending KA90
Tue 03:35:21 PM 42.5500 -71.2333 216° Southwest 138 159 1,900 -422 Descending KA90
Tue 03:36:22 PM 42.5167 -71.2500 200° South 130 150 1,400 -305 Descending KA90
Tue 03:37:19 PM 42.5000 -71.2833 236° Southwest 138 159 1,300 -252 Descending KA90
Tue 03:38:21 PM 42.4833 -71.3167 236° Southwest 95 109 900 -387 Descending KA90
Tue 03:40:00 PM 42.4667 -71.2833 209° Southwest  Level FlightAware Approximate

Login

Don't have an account? Register now (free) for customized features, flight alerts, and more!